createdAt,value
2023-06-17T00:00:54.013Z,95282.00
2023-06-17T00:01:53.990Z,95280.00
2023-06-17T00:02:54.028Z,95280.00
2023-06-17T00:03:53.991Z,95278.00
2023-06-17T00:04:54.006Z,95276.00
2023-06-17T00:05:54.007Z,95280.00
2023-06-17T00:06:53.990Z,95280.00
2023-06-17T00:07:54.020Z,95282.00
2023-06-17T00:08:54.009Z,95286.00
2023-06-17T00:09:54.037Z,95290.00
2023-06-17T00:10:54.078Z,95292.00
2023-06-17T00:11:54.070Z,95293.00
2023-06-17T00:12:54.101Z,95295.00
2023-06-17T00:13:54.065Z,95301.00
2023-06-17T00:14:54.103Z,95303.00
2023-06-17T00:15:54.109Z,95303.00
2023-06-17T00:16:54.098Z,95301.00
2023-06-17T00:17:54.120Z,95293.00
2023-06-17T00:18:54.113Z,95286.00
2023-06-17T00:19:54.133Z,95282.00
2023-06-17T00:20:54.300Z,95274.00
2023-06-17T00:21:54.166Z,95272.00
2023-06-17T00:22:54.131Z,95264.00
2023-06-17T00:23:54.234Z,95262.00
2023-06-17T00:24:54.188Z,95264.00
2023-06-17T00:25:54.173Z,95268.00
2023-06-17T00:26:54.155Z,95276.00
2023-06-17T00:27:54.177Z,95274.00
2023-06-17T00:28:54.177Z,95280.00
2023-06-17T00:29:54.187Z,95280.00
2023-06-17T00:30:54.212Z,95276.00
2023-06-17T00:31:54.178Z,95274.00
2023-06-17T00:32:54.307Z,95274.00
2023-06-17T00:33:54.216Z,95276.00
2023-06-17T00:34:54.228Z,95276.00
2023-06-17T00:35:56.005Z,95276.00
2023-06-17T00:36:54.227Z,95274.00
2023-06-17T00:37:54.245Z,95274.00
2023-06-17T00:38:54.252Z,95272.00
2023-06-17T00:39:54.294Z,95272.00
2023-06-17T00:40:54.313Z,95270.00
2023-06-17T00:41:54.309Z,95274.00
2023-06-17T00:42:54.344Z,95266.00
2023-06-17T00:43:54.348Z,95272.00
2023-06-17T00:44:54.393Z,95266.00
2023-06-17T00:45:54.366Z,95264.00
2023-06-17T00:46:54.439Z,95270.00
2023-06-17T00:47:54.417Z,95260.00
2023-06-17T00:48:54.390Z,95262.00
2023-06-17T00:49:54.396Z,95256.00
2023-06-17T00:50:54.414Z,95254.00
2023-06-17T00:52:13.396Z,95254.00
2023-06-17T00:52:55.402Z,95256.00
2023-06-17T00:53:54.404Z,95256.00
2023-06-17T00:54:54.366Z,95254.00
2023-06-17T00:55:54.373Z,95256.00
2023-06-17T00:56:54.410Z,95254.00
2023-06-17T00:57:54.413Z,95256.00
2023-06-17T00:58:54.358Z,95258.00
2023-06-17T00:59:54.367Z,95260.00
2023-06-17T01:00:54.359Z,95260.00
2023-06-17T01:01:54.356Z,95260.00
2023-06-17T01:02:54.394Z,95262.00
2023-06-17T01:03:54.383Z,95260.00
2023-06-17T01:04:54.338Z,95262.00
2023-06-17T01:05:54.295Z,95260.00
2023-06-17T01:06:54.306Z,95260.00
2023-06-17T01:07:54.329Z,95256.00
2023-06-17T01:08:54.301Z,95256.00
2023-06-17T01:09:54.308Z,95258.00
2023-06-17T01:10:57.065Z,95256.00
2023-06-17T01:11:54.279Z,95260.00
2023-06-17T01:12:54.290Z,95256.00
2023-06-17T01:13:54.260Z,95256.00
2023-06-17T01:14:54.286Z,95256.00
2023-06-17T01:15:54.326Z,95256.00
2023-06-17T01:16:54.242Z,95254.00
2023-06-17T01:17:54.273Z,95256.00
2023-06-17T01:18:54.244Z,95260.00
2023-06-17T01:19:54.225Z,95262.00
2023-06-17T01:20:54.210Z,95262.00
2023-06-17T01:21:54.208Z,95260.00
2023-06-17T01:22:54.189Z,95262.00
2023-06-17T01:23:54.429Z,95262.00
2023-06-17T01:24:54.173Z,95262.00
2023-06-17T01:25:54.178Z,95258.00
2023-06-17T01:26:54.188Z,95256.00
2023-06-17T01:27:54.181Z,95256.00
2023-06-17T01:28:54.168Z,95254.00
2023-06-17T01:29:54.132Z,95254.00
2023-06-17T01:30:54.169Z,95256.00
2023-06-17T01:31:54.155Z,95256.00
2023-06-17T01:32:54.184Z,95256.00
2023-06-17T01:33:54.167Z,95258.00
2023-06-17T01:34:54.136Z,95258.00
2023-06-17T01:35:54.119Z,95256.00
2023-06-17T01:36:54.118Z,95254.00
2023-06-17T01:37:54.114Z,95252.00
2023-06-17T01:38:54.111Z,95250.00
2023-06-17T01:39:54.087Z,95248.00
2023-06-17T01:40:54.086Z,95250.00
2023-06-17T01:41:54.097Z,95250.00
2023-06-17T01:42:54.093Z,95250.00
2023-06-17T01:43:54.076Z,95254.00
2023-06-17T01:44:54.053Z,95254.00
2023-06-17T01:45:54.101Z,95254.00
2023-06-17T01:46:54.059Z,95256.00
2023-06-17T01:47:54.178Z,95258.00
2023-06-17T01:48:54.021Z,95258.00
2023-06-17T01:49:54.019Z,95258.00
2023-06-17T01:50:54.039Z,95260.00
2023-06-17T01:51:54.045Z,95258.00
2023-06-17T01:52:54.041Z,95260.00
2023-06-17T01:53:53.988Z,95256.00
2023-06-17T01:54:53.975Z,95260.00
2023-06-17T01:55:54.031Z,95260.00
2023-06-17T01:56:53.993Z,95260.00
2023-06-17T01:57:53.971Z,95256.00
2023-06-17T01:58:53.992Z,95258.00
2023-06-17T01:59:53.989Z,95252.00
2023-06-17T02:00:53.996Z,95256.00
2023-06-17T02:01:53.949Z,95252.00
2023-06-17T02:02:54.059Z,95254.00
2023-06-17T02:03:54.074Z,95258.00
2023-06-17T02:04:54.019Z,95260.00
2023-06-17T02:05:54.046Z,95262.00
2023-06-17T02:06:54.033Z,95262.00
2023-06-17T02:07:54.117Z,95264.00
2023-06-17T02:08:54.089Z,95262.00
2023-06-17T02:09:54.108Z,95260.00
2023-06-17T02:10:54.126Z,95258.00
2023-06-17T02:11:54.129Z,95256.00
2023-06-17T02:12:54.140Z,95254.00
2023-06-17T02:13:54.156Z,95252.00
2023-06-17T02:14:54.206Z,95252.00
2023-06-17T02:15:54.242Z,95252.00
2023-06-17T02:16:54.213Z,95252.00
2023-06-17T02:17:54.293Z,95254.00
2023-06-17T02:18:54.232Z,95252.00
2023-06-17T02:19:54.287Z,95252.00
2023-06-17T02:20:54.325Z,95254.00
2023-06-17T02:21:54.296Z,95252.00
2023-06-17T02:22:54.313Z,95254.00
2023-06-17T02:23:54.432Z,95258.00
2023-06-17T02:24:54.335Z,95254.00
2023-06-17T02:25:54.350Z,95252.00
2023-06-17T02:26:54.392Z,95248.00
2023-06-17T02:27:54.386Z,95248.00
2023-06-17T02:28:54.404Z,95246.00
2023-06-17T02:29:54.439Z,95248.00
2023-06-17T02:30:54.450Z,95243.00
2023-06-17T02:31:54.454Z,95243.00
2023-06-17T02:32:54.535Z,95241.00
2023-06-17T02:33:54.488Z,95243.00
2023-06-17T02:34:54.524Z,95245.00
2023-06-17T02:35:54.539Z,95246.00
2023-06-17T02:36:54.535Z,95248.00
2023-06-17T02:37:54.543Z,95248.00
2023-06-17T02:38:54.560Z,95248.00
2023-06-17T02:39:54.590Z,95250.00
2023-06-17T02:40:54.588Z,95250.00
2023-06-17T02:41:54.643Z,95248.00
2023-06-17T02:42:54.632Z,95246.00
2023-06-17T02:43:54.621Z,95245.00
2023-06-17T02:44:54.671Z,95243.00
2023-06-17T02:45:54.683Z,95241.00
2023-06-17T02:46:54.758Z,95245.00
2023-06-17T02:47:54.800Z,95245.00
2023-06-17T02:48:54.762Z,95245.00
2023-06-17T02:49:54.759Z,95241.00
2023-06-17T02:50:54.772Z,95241.00
2023-06-17T02:51:54.766Z,95243.00
2023-06-17T02:52:54.807Z,95243.00
2023-06-17T02:53:54.818Z,95241.00
2023-06-17T02:54:54.846Z,95241.00
2023-06-17T02:55:54.886Z,95245.00
2023-06-17T02:56:54.901Z,95245.00
2023-06-17T02:57:54.907Z,95250.00
2023-06-17T02:58:54.921Z,95245.00
2023-06-17T02:59:54.922Z,95241.00
2023-06-17T03:00:54.996Z,95239.00
2023-06-17T03:01:54.977Z,95239.00
2023-06-17T03:02:55.097Z,95237.00
2023-06-17T03:03:54.953Z,95241.00
2023-06-17T03:04:55.035Z,95243.00
2023-06-17T03:05:54.994Z,95245.00
2023-06-17T03:06:55.062Z,95245.00
2023-06-17T03:07:55.069Z,95245.00
2023-06-17T03:08:55.104Z,95246.00
2023-06-17T03:09:55.109Z,95246.00
2023-06-17T03:10:55.128Z,95245.00
2023-06-17T03:11:55.146Z,95239.00
2023-06-17T03:12:55.175Z,95243.00
2023-06-17T03:13:55.187Z,95245.00
2023-06-17T03:14:55.202Z,95243.00
2023-06-17T03:15:55.202Z,95246.00
2023-06-17T03:16:55.291Z,95245.00
2023-06-17T03:17:55.354Z,95248.00
2023-06-17T03:18:55.275Z,95248.00
2023-06-17T03:19:55.268Z,95250.00
2023-06-17T03:20:55.320Z,95252.00
2023-06-17T03:21:56.687Z,95252.00
2023-06-17T03:22:55.321Z,95252.00
2023-06-17T03:23:55.396Z,95252.00
2023-06-17T03:24:55.369Z,95252.00
2023-06-17T03:25:55.371Z,95252.00
2023-06-17T03:26:55.420Z,95252.00
2023-06-17T03:27:55.438Z,95248.00
2023-06-17T03:28:55.432Z,95246.00
2023-06-17T03:29:55.429Z,95248.00
2023-06-17T03:30:55.437Z,95245.00
2023-06-17T03:31:55.503Z,95246.00
2023-06-17T03:32:55.656Z,95248.00
2023-06-17T03:33:55.541Z,95252.00
2023-06-17T03:34:55.544Z,95250.00
2023-06-17T03:35:55.563Z,95250.00
2023-06-17T03:36:55.574Z,95252.00
2023-06-17T03:37:55.604Z,95252.00
2023-06-17T03:38:55.601Z,95248.00
2023-06-17T03:39:55.641Z,95252.00
2023-06-17T03:40:55.648Z,95248.00
2023-06-17T03:41:55.681Z,95250.00
2023-06-17T03:42:55.721Z,95248.00
2023-06-17T03:43:55.736Z,95243.00
2023-06-17T03:44:55.755Z,95245.00
2023-06-17T03:45:55.756Z,95246.00
2023-06-17T03:46:55.780Z,95248.00
2023-06-17T03:47:55.851Z,95248.00
2023-06-17T03:48:55.852Z,95248.00
2023-06-17T03:49:55.855Z,95252.00
2023-06-17T03:50:55.885Z,95248.00
2023-06-17T03:51:55.896Z,95250.00
2023-06-17T03:52:55.906Z,95248.00
2023-06-17T03:53:55.939Z,95248.00
2023-06-17T03:54:55.938Z,95250.00
2023-06-17T03:55:56.007Z,95250.00
2023-06-17T03:56:56.008Z,95254.00
2023-06-17T03:57:56.027Z,95258.00
2023-06-17T03:58:56.084Z,95258.00
2023-06-17T03:59:56.085Z,95256.00
2023-06-17T04:00:56.095Z,95262.00
2023-06-17T04:01:56.107Z,95262.00
2023-06-17T04:02:56.197Z,95262.00
2023-06-17T04:03:56.258Z,95262.00
2023-06-17T04:04:56.159Z,95260.00
2023-06-17T04:05:56.169Z,95262.00
2023-06-17T04:06:56.210Z,95258.00
2023-06-17T04:07:56.206Z,95258.00
2023-06-17T04:08:56.234Z,95258.00
2023-06-17T04:10:06.540Z,95260.00
2023-06-17T04:10:57.254Z,95258.00
2023-06-17T04:11:56.218Z,95256.00
2023-06-17T04:12:56.221Z,95258.00
2023-06-17T04:13:56.228Z,95258.00
2023-06-17T04:14:56.243Z,95260.00
2023-06-17T04:15:56.217Z,95258.00
2023-06-17T04:16:56.204Z,95258.00
2023-06-17T04:17:58.292Z,95254.00
2023-06-17T04:18:56.181Z,95256.00
2023-06-17T04:19:56.182Z,95252.00
2023-06-17T04:20:56.175Z,95252.00
2023-06-17T04:21:56.194Z,95250.00
2023-06-17T04:22:56.228Z,95250.00
2023-06-17T04:23:56.231Z,95252.00
2023-06-17T04:24:56.240Z,95250.00
2023-06-17T04:25:56.265Z,95248.00
2023-06-17T04:26:56.262Z,95248.00
2023-06-17T04:27:56.295Z,95248.00
2023-06-17T04:28:56.335Z,95248.00
2023-06-17T04:29:56.337Z,95250.00
2023-06-17T04:30:56.341Z,95248.00
2023-06-17T04:31:56.397Z,95248.00
2023-06-17T04:32:56.490Z,95246.00
2023-06-17T04:33:56.399Z,95243.00
2023-06-17T04:34:56.650Z,95245.00
2023-06-17T04:35:56.422Z,95248.00
2023-06-17T04:36:56.445Z,95246.00
2023-06-17T04:37:56.436Z,95246.00
2023-06-17T04:38:56.438Z,95246.00
2023-06-17T04:39:56.409Z,95248.00
2023-06-17T04:40:56.472Z,95250.00
2023-06-17T04:41:56.429Z,95254.00
2023-06-17T04:42:56.431Z,95256.00
2023-06-17T04:43:56.430Z,95256.00
2023-06-17T04:44:56.439Z,95258.00
2023-06-17T04:45:56.464Z,95254.00
2023-06-17T04:46:56.490Z,95252.00
2023-06-17T04:47:56.514Z,95254.00
2023-06-17T04:48:56.433Z,95250.00
2023-06-17T04:49:56.462Z,95254.00
2023-06-17T04:50:56.473Z,95256.00
2023-06-17T04:51:56.483Z,95254.00
2023-06-17T04:52:56.438Z,95254.00
2023-06-17T04:53:56.457Z,95252.00
2023-06-17T04:54:56.453Z,95252.00
2023-06-17T04:55:56.447Z,95252.00
2023-06-17T04:56:56.452Z,95258.00
2023-06-17T04:57:56.466Z,95254.00
2023-06-17T04:58:56.468Z,95260.00
2023-06-17T04:59:56.446Z,95256.00
2023-06-17T05:00:56.542Z,95258.00
2023-06-17T05:01:56.520Z,95254.00
2023-06-17T05:02:56.554Z,95258.00
2023-06-17T05:03:56.556Z,95256.00
2023-06-17T05:04:56.538Z,95258.00
2023-06-17T05:05:56.621Z,95254.00
2023-06-17T05:06:56.621Z,95252.00
2023-06-17T05:07:56.646Z,95252.00
2023-06-17T05:08:56.721Z,95250.00
2023-06-17T05:09:56.784Z,95252.00
2023-06-17T05:10:56.829Z,95248.00
2023-06-17T05:11:56.946Z,95248.00
2023-06-17T05:12:56.946Z,95252.00
2023-06-17T05:13:57.037Z,95250.00
2023-06-17T05:14:57.098Z,95254.00
2023-06-17T05:15:57.148Z,95256.00
2023-06-17T05:16:57.269Z,95258.00
2023-06-17T05:17:57.285Z,95260.00
2023-06-17T05:18:57.318Z,95258.00
2023-06-17T05:19:57.390Z,95256.00
2023-06-17T05:20:57.422Z,95254.00
2023-06-17T05:21:57.534Z,95256.00
2023-06-17T05:22:57.537Z,95256.00
2023-06-17T05:23:57.634Z,95252.00
2023-06-17T05:24:57.650Z,95252.00
2023-06-17T05:25:57.758Z,95252.00
2023-06-17T05:26:57.758Z,95258.00
2023-06-17T05:27:57.814Z,95254.00
2023-06-17T05:28:57.883Z,95258.00
2023-06-17T05:29:57.921Z,95256.00
2023-06-17T05:30:58.005Z,95256.00
2023-06-17T05:31:58.055Z,95258.00
2023-06-17T05:32:58.188Z,95258.00
2023-06-17T05:33:58.213Z,95260.00
2023-06-17T05:34:58.200Z,95260.00
2023-06-17T05:35:58.289Z,95260.00
2023-06-17T05:36:58.349Z,95260.00
2023-06-17T05:37:58.377Z,95260.00
2023-06-17T05:38:58.437Z,95260.00
2023-06-17T05:39:58.493Z,95258.00
2023-06-17T05:40:58.570Z,95258.00
2023-06-17T05:41:58.629Z,95262.00
2023-06-17T05:42:58.646Z,95262.00
2023-06-17T05:43:58.715Z,95262.00
2023-06-17T05:44:58.786Z,95260.00
2023-06-17T05:45:58.886Z,95260.00
2023-06-17T05:46:58.911Z,95262.00
2023-06-17T05:47:58.962Z,95260.00
2023-06-17T05:48:59.025Z,95262.00
2023-06-17T05:49:59.023Z,95262.00
2023-06-17T05:50:59.082Z,95260.00
2023-06-17T05:51:59.142Z,95258.00
2023-06-17T05:52:59.214Z,95258.00
2023-06-17T05:53:59.226Z,95256.00
2023-06-17T05:54:59.292Z,95256.00
2023-06-17T05:55:59.322Z,95254.00
2023-06-17T05:56:59.388Z,95258.00
2023-06-17T05:57:59.449Z,95254.00
2023-06-17T05:58:59.507Z,95254.00
2023-06-17T05:59:59.553Z,95254.00
2023-06-17T06:00:59.609Z,95254.00
2023-06-17T06:01:59.852Z,95258.00
2023-06-17T06:02:59.856Z,95258.00
2023-06-17T06:03:59.858Z,95254.00
2023-06-17T06:04:59.845Z,95254.00
2023-06-17T06:05:59.905Z,95252.00
2023-06-17T06:06:59.979Z,95250.00
2023-06-17T06:08:00.065Z,95250.00
2023-06-17T06:09:00.126Z,95248.00
2023-06-17T06:10:00.202Z,95248.00
2023-06-17T06:11:00.250Z,95252.00
2023-06-17T06:12:00.312Z,95248.00
2023-06-17T06:13:00.353Z,95248.00
2023-06-17T06:14:00.444Z,95246.00
2023-06-17T06:15:00.507Z,95248.00
2023-06-17T06:16:00.569Z,95248.00
2023-06-17T06:17:00.649Z,95248.00
2023-06-17T06:18:00.758Z,95246.00
2023-06-17T06:19:00.773Z,95248.00
2023-06-17T06:20:00.788Z,95246.00
2023-06-17T06:21:00.860Z,95246.00
2023-06-17T06:22:00.933Z,95246.00
2023-06-17T06:23:01.025Z,95248.00
2023-06-17T06:24:01.113Z,95250.00
2023-06-17T06:25:01.138Z,95250.00
2023-06-17T06:26:01.176Z,95246.00
2023-06-17T06:27:01.246Z,95246.00
2023-06-17T06:28:01.276Z,95243.00
2023-06-17T06:29:01.342Z,95245.00
2023-06-17T06:30:01.406Z,95245.00
2023-06-17T06:31:01.474Z,95245.00
2023-06-17T06:32:01.529Z,95243.00
2023-06-17T06:33:01.586Z,95245.00
2023-06-17T06:34:01.632Z,95246.00
2023-06-17T06:35:01.711Z,95245.00
2023-06-17T06:36:01.757Z,95248.00
2023-06-17T06:37:01.776Z,95246.00
2023-06-17T06:38:01.831Z,95246.00
2023-06-17T06:39:01.884Z,95245.00
2023-06-17T06:40:01.948Z,95246.00
2023-06-17T06:41:02.001Z,95243.00
2023-06-17T06:42:02.131Z,95245.00
2023-06-17T06:43:02.122Z,95245.00
2023-06-17T06:44:02.148Z,95243.00
2023-06-17T06:45:02.265Z,95245.00
2023-06-17T06:46:02.303Z,95245.00
2023-06-17T06:47:02.331Z,95245.00
2023-06-17T06:48:02.485Z,95243.00
2023-06-17T06:49:02.469Z,95245.00
2023-06-17T06:50:02.510Z,95241.00
2023-06-17T06:51:02.588Z,95243.00
2023-06-17T06:52:02.637Z,95239.00
2023-06-17T06:53:02.678Z,95239.00
2023-06-17T06:54:02.778Z,95241.00
2023-06-17T06:55:02.831Z,95246.00
2023-06-17T06:56:02.883Z,95243.00
2023-06-17T06:57:02.899Z,95241.00
2023-06-17T06:58:02.965Z,95239.00
2023-06-17T06:59:03.018Z,95237.00
2023-06-17T07:00:03.056Z,95235.00
2023-06-17T07:01:03.121Z,95235.00
2023-06-17T07:02:03.107Z,95237.00
2023-06-17T07:03:03.163Z,95239.00
2023-06-17T07:04:03.170Z,95237.00
2023-06-17T07:05:03.261Z,95237.00
2023-06-17T07:06:03.261Z,95233.00
2023-06-17T07:07:03.259Z,95233.00
2023-06-17T07:08:03.358Z,95233.00
2023-06-17T07:09:03.341Z,95233.00
2023-06-17T07:10:03.357Z,95229.00
2023-06-17T07:11:03.404Z,95231.00
2023-06-17T07:12:03.434Z,95231.00
2023-06-17T07:13:03.462Z,95229.00
2023-06-17T07:14:03.515Z,95227.00
2023-06-17T07:15:03.490Z,95225.00
2023-06-17T07:16:03.559Z,95225.00
2023-06-17T07:17:03.651Z,95221.00
2023-06-17T07:18:03.671Z,95225.00
2023-06-17T07:19:03.591Z,95223.00
2023-06-17T07:20:03.602Z,95223.00
2023-06-17T07:21:03.632Z,95217.00
2023-06-17T07:22:03.659Z,95219.00
2023-06-17T07:23:03.656Z,95217.00
2023-06-17T07:24:03.694Z,95221.00
2023-06-17T07:25:03.701Z,95221.00
2023-06-17T07:26:03.706Z,95221.00
2023-06-17T07:27:03.702Z,95223.00
2023-06-17T07:28:03.735Z,95219.00
2023-06-17T07:29:03.742Z,95221.00
2023-06-17T07:30:03.769Z,95223.00
2023-06-17T07:31:03.903Z,95221.00
2023-06-17T07:32:03.897Z,95223.00
2023-06-17T07:33:03.905Z,95221.00
2023-06-17T07:34:03.925Z,95217.00
2023-06-17T07:35:03.905Z,95221.00
2023-06-17T07:36:03.919Z,95217.00
2023-06-17T07:37:03.910Z,95217.00
2023-06-17T07:38:03.915Z,95211.00
2023-06-17T07:39:03.940Z,95215.00
2023-06-17T07:40:03.951Z,95213.00
2023-06-17T07:41:03.974Z,95211.00
2023-06-17T07:42:04.015Z,95207.00
2023-06-17T07:43:04.012Z,95207.00
2023-06-17T07:44:04.022Z,95207.00
2023-06-17T07:45:04.032Z,95205.00
2023-06-17T07:46:05.505Z,95205.00
2023-06-17T07:47:04.040Z,95205.00
2023-06-17T07:48:04.101Z,95205.00
2023-06-17T07:49:04.051Z,95203.00
2023-06-17T07:50:04.035Z,95199.00
2023-06-17T07:51:03.990Z,95199.00
2023-06-17T07:52:04.026Z,95199.00
2023-06-17T07:53:04.031Z,95198.00
2023-06-17T07:54:04.042Z,95198.00
2023-06-17T07:55:06.182Z,95196.00
2023-06-17T07:56:04.003Z,95194.00
2023-06-17T07:57:03.973Z,95196.00
2023-06-17T07:58:03.954Z,95192.00
2023-06-17T07:59:03.971Z,95196.00
2023-06-17T08:00:03.946Z,95194.00
2023-06-17T08:01:03.948Z,95198.00
2023-06-17T08:02:04.733Z,95192.00
2023-06-17T08:03:04.125Z,95194.00
2023-06-17T08:04:04.033Z,95192.00
2023-06-17T08:05:03.929Z,95188.00
2023-06-17T08:06:03.947Z,95186.00
2023-06-17T08:07:03.934Z,95184.00
2023-06-17T08:08:03.930Z,95186.00
2023-06-17T08:09:03.887Z,95184.00
2023-06-17T08:10:04.576Z,95180.00
2023-06-17T08:11:03.918Z,95182.00
2023-06-17T08:12:03.877Z,95182.00
2023-06-17T08:13:03.883Z,95176.00
2023-06-17T08:14:03.873Z,95178.00
2023-06-17T08:15:03.889Z,95178.00
2023-06-17T08:16:03.930Z,95178.00
2023-06-17T08:17:03.884Z,95172.00
2023-06-17T08:18:03.993Z,95172.00
2023-06-17T08:19:03.882Z,95166.00
2023-06-17T08:20:03.904Z,95164.00
2023-06-17T08:21:03.941Z,95160.00
2023-06-17T08:22:03.934Z,95162.00
2023-06-17T08:23:03.946Z,95158.00
2023-06-17T08:24:04.015Z,95162.00
2023-06-17T08:25:04.011Z,95160.00
2023-06-17T08:26:03.981Z,95158.00
2023-06-17T08:27:04.033Z,95158.00
2023-06-17T08:28:04.031Z,95156.00
2023-06-17T08:29:04.022Z,95156.00
2023-06-17T08:30:04.025Z,95158.00
2023-06-17T08:31:04.035Z,95154.00
2023-06-17T08:32:04.035Z,95152.00
2023-06-17T08:33:04.077Z,95152.00
2023-06-17T08:34:04.065Z,95152.00
2023-06-17T08:35:04.129Z,95152.00
2023-06-17T08:36:04.150Z,95154.00
2023-06-17T08:37:04.156Z,95154.00
2023-06-17T08:38:04.184Z,95154.00
2023-06-17T08:39:04.223Z,95152.00
2023-06-17T08:40:04.225Z,95152.00
2023-06-17T08:41:04.241Z,95154.00
2023-06-17T08:42:04.293Z,95145.00
2023-06-17T08:43:04.327Z,95152.00
2023-06-17T08:44:04.312Z,95141.00
2023-06-17T08:45:04.353Z,95141.00
2023-06-17T08:46:04.384Z,95141.00
2023-06-17T08:47:04.378Z,95143.00
2023-06-17T08:48:04.493Z,95141.00
2023-06-17T08:49:04.469Z,95139.00
2023-06-17T08:50:04.492Z,95135.00
2023-06-17T08:51:04.526Z,95133.00
2023-06-17T08:52:04.576Z,95133.00
2023-06-17T08:53:04.622Z,95133.00
2023-06-17T08:54:04.695Z,95133.00
2023-06-17T08:55:04.700Z,95131.00
2023-06-17T08:56:04.804Z,95133.00
2023-06-17T08:57:04.739Z,95131.00
2023-06-17T08:58:04.781Z,95131.00
2023-06-17T08:59:04.797Z,95129.00
2023-06-17T09:00:04.818Z,95127.00
2023-06-17T09:01:04.858Z,95127.00
2023-06-17T09:02:04.826Z,95125.00
2023-06-17T09:03:04.950Z,95129.00
2023-06-17T09:04:04.872Z,95127.00
2023-06-17T09:05:04.938Z,95123.00
2023-06-17T09:06:04.891Z,95127.00
2023-06-17T09:07:04.922Z,95123.00
2023-06-17T09:08:04.913Z,95123.00
2023-06-17T09:09:04.959Z,95125.00
2023-06-17T09:10:04.958Z,95123.00
2023-06-17T09:11:04.976Z,95121.00
2023-06-17T09:12:04.979Z,95123.00
2023-06-17T09:13:05.003Z,95127.00
2023-06-17T09:14:05.107Z,95125.00
2023-06-17T09:15:05.020Z,95127.00
2023-06-17T09:16:05.039Z,95123.00
2023-06-17T09:17:05.107Z,95125.00
2023-06-17T09:18:05.112Z,95121.00
2023-06-17T09:19:05.110Z,95121.00
2023-06-17T09:20:05.081Z,95117.00
2023-06-17T09:21:05.119Z,95115.00
2023-06-17T09:22:05.117Z,95115.00
2023-06-17T09:23:05.120Z,95113.00
2023-06-17T09:24:05.187Z,95111.00
2023-06-17T09:25:05.126Z,95107.00
2023-06-17T09:26:05.165Z,95105.00
2023-06-17T09:27:05.193Z,95103.00
2023-06-17T09:28:16.983Z,95105.00
2023-06-17T09:29:06.225Z,95105.00
2023-06-17T09:30:05.175Z,95105.00
2023-06-17T09:31:05.195Z,95103.00
2023-06-17T09:32:05.171Z,95103.00
2023-06-17T09:33:05.173Z,95103.00
2023-06-17T09:34:05.189Z,95101.00
2023-06-17T09:35:05.132Z,95101.00
2023-06-17T09:36:05.163Z,95101.00
2023-06-17T09:37:05.099Z,95101.00
2023-06-17T09:38:05.245Z,95099.00
2023-06-17T09:39:05.091Z,95099.00
2023-06-17T09:40:05.097Z,95099.00
2023-06-17T09:41:05.123Z,95098.00
2023-06-17T09:42:05.112Z,95099.00
2023-06-17T09:43:25.174Z,95101.00
2023-06-17T09:44:06.050Z,95099.00
2023-06-17T09:45:05.087Z,95096.00
2023-06-17T09:46:05.069Z,95094.00
2023-06-17T09:47:05.048Z,95096.00
2023-06-17T09:48:05.077Z,95094.00
2023-06-17T09:49:05.063Z,95090.00
2023-06-17T09:50:05.023Z,95090.00
2023-06-17T09:51:05.025Z,95090.00
2023-06-17T09:52:05.000Z,95088.00
2023-06-17T09:53:05.030Z,95088.00
2023-06-17T09:54:05.038Z,95088.00
2023-06-17T09:55:05.013Z,95088.00
2023-06-17T09:56:05.018Z,95084.00
2023-06-17T09:57:04.973Z,95084.00
2023-06-17T09:58:04.986Z,95084.00
2023-06-17T09:59:04.994Z,95084.00
2023-06-17T10:00:04.984Z,95086.00
2023-06-17T10:01:04.956Z,95086.00
2023-06-17T10:02:04.983Z,95084.00
2023-06-17T10:03:05.064Z,95086.00
2023-06-17T10:04:04.985Z,95084.00
2023-06-17T10:05:04.981Z,95084.00
2023-06-17T10:06:04.951Z,95082.00
2023-06-17T10:07:04.959Z,95078.00
2023-06-17T10:08:04.992Z,95076.00
2023-06-17T10:09:05.050Z,95074.00
2023-06-17T10:10:05.027Z,95072.00
2023-06-17T10:11:05.066Z,95070.00
2023-06-17T10:12:05.058Z,95070.00
2023-06-17T10:13:05.119Z,95072.00
2023-06-17T10:14:05.166Z,95070.00
2023-06-17T10:15:05.099Z,95066.00
2023-06-17T10:16:05.109Z,95066.00
2023-06-17T10:17:05.129Z,95064.00
2023-06-17T10:18:05.231Z,95064.00
2023-06-17T10:19:05.197Z,95060.00
2023-06-17T10:20:05.196Z,95060.00
2023-06-17T10:21:05.258Z,95058.00
2023-06-17T10:22:05.250Z,95058.00
2023-06-17T10:23:05.228Z,95058.00
2023-06-17T10:24:05.309Z,95056.00
2023-06-17T10:25:05.337Z,95056.00
2023-06-17T10:26:05.293Z,95054.00
2023-06-17T10:27:05.616Z,95052.00
2023-06-17T10:28:05.372Z,95054.00
2023-06-17T10:29:05.383Z,95054.00
2023-06-17T10:30:05.477Z,95054.00
2023-06-17T10:31:05.446Z,95054.00
2023-06-17T10:32:06.143Z,95052.00
2023-06-17T10:33:05.534Z,95051.00
2023-06-17T10:34:05.562Z,95051.00
2023-06-17T10:35:05.601Z,95051.00
2023-06-17T10:36:05.608Z,95051.00
2023-06-17T10:37:05.617Z,95051.00
2023-06-17T10:38:05.667Z,95051.00
2023-06-17T10:39:05.647Z,95051.00
2023-06-17T10:40:05.690Z,95051.00
2023-06-17T10:41:05.708Z,95049.00
2023-06-17T10:42:05.930Z,95045.00
2023-06-17T10:43:05.765Z,95045.00
2023-06-17T10:44:05.773Z,95047.00
2023-06-17T10:45:05.798Z,95047.00
2023-06-17T10:46:05.865Z,95045.00
2023-06-17T10:47:05.839Z,95043.00
2023-06-17T10:48:05.926Z,95039.00
2023-06-17T10:49:05.897Z,95039.00
2023-06-17T10:50:05.932Z,95037.00
2023-06-17T10:51:05.944Z,95037.00
2023-06-17T10:52:05.962Z,95037.00
2023-06-17T10:53:05.981Z,95035.00
2023-06-17T10:54:06.058Z,95033.00
2023-06-17T10:55:06.047Z,95029.00
2023-06-17T10:56:06.078Z,95027.00
2023-06-17T10:57:06.121Z,95027.00
2023-06-17T10:58:06.094Z,95027.00
2023-06-17T10:59:06.204Z,95023.00
2023-06-17T11:00:06.177Z,95023.00
2023-06-17T11:01:06.197Z,95023.00
2023-06-17T11:02:06.318Z,95019.00
2023-06-17T11:03:06.339Z,95019.00
2023-06-17T11:04:06.341Z,95019.00
2023-06-17T11:05:06.434Z,95019.00
2023-06-17T11:06:06.329Z,95021.00
2023-06-17T11:07:06.369Z,95021.00
2023-06-17T11:08:06.399Z,95017.00
2023-06-17T11:09:06.415Z,95015.00
2023-06-17T11:10:06.588Z,95017.00
2023-06-17T11:11:06.513Z,95017.00
2023-06-17T11:12:06.544Z,95015.00
2023-06-17T11:13:06.533Z,95013.00
2023-06-17T11:14:06.558Z,95013.00
2023-06-17T11:15:06.592Z,95011.00
2023-06-17T11:16:06.651Z,95013.00
2023-06-17T11:17:06.674Z,95011.00
2023-06-17T11:18:06.762Z,95013.00
2023-06-17T11:19:06.790Z,95009.00
2023-06-17T11:20:06.737Z,95007.00
2023-06-17T11:21:06.770Z,95007.00
2023-06-17T11:22:06.806Z,95009.00
2023-06-17T11:23:06.818Z,95007.00
2023-06-17T11:24:06.842Z,95005.00
2023-06-17T11:25:06.842Z,95007.00
2023-06-17T11:26:06.876Z,95004.00
2023-06-17T11:27:07.032Z,95004.00
2023-06-17T11:28:06.941Z,95004.00
2023-06-17T11:29:06.948Z,95004.00
2023-06-17T11:30:06.991Z,95004.00
2023-06-17T11:31:07.079Z,95002.00
2023-06-17T11:32:06.996Z,95000.00
2023-06-17T11:33:07.773Z,94996.00
2023-06-17T11:34:07.054Z,95000.00
2023-06-17T11:35:07.088Z,94996.00
2023-06-17T11:36:07.113Z,94994.00
2023-06-17T11:37:07.123Z,94988.00
2023-06-17T11:38:07.221Z,94992.00
2023-06-17T11:39:07.204Z,94988.00
2023-06-17T11:40:07.190Z,94984.00
2023-06-17T11:41:07.231Z,94982.00
2023-06-17T11:42:07.242Z,94982.00
2023-06-17T11:43:07.278Z,94982.00
2023-06-17T11:44:07.332Z,94978.00
2023-06-17T11:45:07.298Z,94976.00